createdAt,value
2023-05-16T00:00:27.970Z,48.66
2023-05-16T00:01:27.612Z,48.50
2023-05-16T00:02:27.698Z,49.79
2023-05-16T00:03:27.742Z,48.98
2023-05-16T00:04:27.633Z,48.66
2023-05-16T00:05:27.625Z,48.66
2023-05-16T00:06:27.589Z,48.66
2023-05-16T00:07:27.602Z,48.34
2023-05-16T00:08:27.563Z,49.47
2023-05-16T00:09:27.823Z,50.11
2023-05-16T00:10:27.753Z,48.82
2023-05-16T00:11:27.529Z,50.92
2023-05-16T00:12:27.535Z,48.98
2023-05-16T00:13:27.474Z,48.66
2023-05-16T00:14:27.611Z,49.47
2023-05-16T00:15:27.597Z,49.15
2023-05-16T00:16:27.512Z,50.27
2023-05-16T00:17:27.500Z,49.63
2023-05-16T00:18:27.429Z,47.37
2023-05-16T00:19:27.518Z,48.66
2023-05-16T00:20:27.701Z,48.66
2023-05-16T00:21:27.357Z,50.92
2023-05-16T00:22:27.512Z,47.53
2023-05-16T00:23:27.810Z,48.66
2023-05-16T00:24:27.458Z,48.82
2023-05-16T00:25:27.513Z,48.34
2023-05-16T00:26:27.470Z,47.86
2023-05-16T00:27:27.394Z,48.02
2023-05-16T00:28:27.412Z,48.18
2023-05-16T00:29:27.475Z,48.18
2023-05-16T00:30:27.603Z,48.02
2023-05-16T00:31:27.474Z,47.70
2023-05-16T00:32:27.407Z,47.37
2023-05-16T00:33:27.357Z,48.50
2023-05-16T00:34:27.691Z,49.95
2023-05-16T00:35:27.357Z,50.92
2023-05-16T00:36:27.396Z,50.92
2023-05-16T00:37:27.340Z,48.34
2023-05-16T00:38:27.361Z,48.50
2023-05-16T00:39:27.235Z,49.95
2023-05-16T00:40:27.403Z,49.63
2023-05-16T00:41:27.319Z,49.47
2023-05-16T00:42:28.383Z,49.95
2023-05-16T00:43:27.224Z,49.95
2023-05-16T00:44:27.418Z,48.50
2023-05-16T00:45:27.317Z,48.66
2023-05-16T00:46:27.289Z,53.01
2023-05-16T00:47:27.391Z,50.43
2023-05-16T00:48:27.302Z,48.98
2023-05-16T00:49:27.245Z,48.34
2023-05-16T00:50:27.365Z,49.47
2023-05-16T00:51:27.218Z,51.56
2023-05-16T00:52:27.562Z,48.98
2023-05-16T00:53:27.225Z,51.08
2023-05-16T00:54:27.203Z,50.76
2023-05-16T00:55:27.200Z,48.66
2023-05-16T00:56:27.213Z,47.86
2023-05-16T00:57:27.235Z,50.43
2023-05-16T00:58:27.237Z,52.05
2023-05-16T00:59:27.143Z,49.15
2023-05-16T01:00:27.331Z,48.98
2023-05-16T01:01:27.217Z,50.11
2023-05-16T01:02:27.171Z,48.02
2023-05-16T01:03:27.552Z,48.50
2023-05-16T01:04:27.080Z,48.02
2023-05-16T01:05:28.556Z,47.86
2023-05-16T01:06:27.035Z,48.34
2023-05-16T01:07:27.123Z,48.02
2023-05-16T01:08:27.201Z,51.24
2023-05-16T01:09:27.141Z,48.18
2023-05-16T01:10:27.157Z,50.11
2023-05-16T01:11:27.087Z,49.31
2023-05-16T01:12:27.080Z,48.34
2023-05-16T01:13:27.012Z,48.02
2023-05-16T01:14:27.173Z,49.15
2023-05-16T01:15:27.131Z,49.31
2023-05-16T01:16:27.112Z,51.40
2023-05-16T01:17:27.353Z,51.72
2023-05-16T01:18:27.023Z,50.11
2023-05-16T01:19:29.448Z,49.31
2023-05-16T01:20:27.021Z,48.98
2023-05-16T01:21:27.028Z,48.02
2023-05-16T01:22:27.015Z,48.98
2023-05-16T01:23:26.992Z,48.98
2023-05-16T01:24:27.076Z,49.95
2023-05-16T01:25:27.241Z,49.63
2023-05-16T01:26:27.054Z,49.47
2023-05-16T01:27:31.114Z,49.95
2023-05-16T01:28:26.847Z,49.79
2023-05-16T01:29:26.904Z,49.47
2023-05-16T01:30:26.935Z,49.15
2023-05-16T01:31:26.927Z,48.82
2023-05-16T01:32:26.883Z,50.27
2023-05-16T01:33:26.853Z,49.79
2023-05-16T01:34:26.893Z,49.63
2023-05-16T01:35:27.022Z,49.63
2023-05-16T01:36:26.810Z,49.95
2023-05-16T01:37:26.794Z,49.95
2023-05-16T01:38:26.961Z,54.30
2023-05-16T01:39:26.879Z,49.47
2023-05-16T01:40:26.883Z,48.98
2023-05-16T01:41:26.931Z,48.66
2023-05-16T01:42:26.881Z,49.63
2023-05-16T01:43:26.895Z,49.79
2023-05-16T01:44:26.883Z,50.43
2023-05-16T01:45:27.206Z,52.21
2023-05-16T01:46:27.154Z,50.43
2023-05-16T01:47:26.936Z,49.79
2023-05-16T01:48:26.817Z,48.66
2023-05-16T01:49:26.863Z,49.63
2023-05-16T01:50:26.840Z,49.47
2023-05-16T01:51:26.899Z,51.24
2023-05-16T01:52:26.830Z,49.47
2023-05-16T01:54:09.530Z,50.76
2023-05-16T01:54:27.664Z,48.98
2023-05-16T01:55:26.954Z,48.18
2023-05-16T01:56:26.815Z,49.95
2023-05-16T01:57:26.830Z,50.11
2023-05-16T01:58:27.095Z,49.15
2023-05-16T01:59:26.839Z,49.15
2023-05-16T02:00:26.730Z,49.47
2023-05-16T02:01:26.809Z,48.50
2023-05-16T02:02:26.746Z,49.47
2023-05-16T02:03:26.760Z,49.31
2023-05-16T02:04:26.624Z,47.86
2023-05-16T02:05:26.885Z,48.98
2023-05-16T02:06:26.640Z,48.98
2023-05-16T02:07:26.603Z,50.92
2023-05-16T02:08:27.828Z,48.18
2023-05-16T02:09:26.698Z,47.86
2023-05-16T02:10:26.729Z,48.66
2023-05-16T02:11:26.662Z,49.15
2023-05-16T02:12:26.753Z,49.15
2023-05-16T02:13:26.604Z,50.92
2023-05-16T02:14:26.644Z,51.08
2023-05-16T02:15:26.925Z,50.60
2023-05-16T02:16:27.952Z,50.43
2023-05-16T02:17:26.722Z,50.76
2023-05-16T02:18:26.639Z,49.31
2023-05-16T02:19:26.711Z,49.47
2023-05-16T02:20:27.590Z,50.92
2023-05-16T02:21:26.552Z,50.11
2023-05-16T02:22:26.580Z,49.15
2023-05-16T02:23:26.565Z,48.66
2023-05-16T02:24:26.540Z,49.31
2023-05-16T02:25:26.780Z,51.40
2023-05-16T02:26:26.540Z,51.88
2023-05-16T02:27:26.819Z,50.27
2023-05-16T02:28:26.550Z,53.66
2023-05-16T02:29:26.593Z,49.15
2023-05-16T02:30:26.591Z,48.66
2023-05-16T02:31:26.580Z,48.98
2023-05-16T02:32:26.643Z,49.15
2023-05-16T02:33:26.388Z,50.92
2023-05-16T02:34:26.449Z,53.98
2023-05-16T02:35:26.570Z,53.17
2023-05-16T02:36:26.423Z,51.08
2023-05-16T02:37:26.378Z,49.95
2023-05-16T02:38:26.424Z,49.47
2023-05-16T02:39:26.887Z,49.63
2023-05-16T02:40:26.363Z,51.88
2023-05-16T02:41:26.424Z,51.56
2023-05-16T02:42:26.330Z,50.60
2023-05-16T02:43:26.319Z,49.15
2023-05-16T02:44:54.000Z,49.15
2023-05-16T02:45:27.580Z,48.66
2023-05-16T02:46:26.375Z,49.63
2023-05-16T02:47:26.513Z,49.63
2023-05-16T02:48:26.435Z,51.08
2023-05-16T02:49:26.431Z,49.47
2023-05-16T02:50:26.397Z,51.72
2023-05-16T02:51:26.305Z,51.08
2023-05-16T02:52:26.444Z,54.46
2023-05-16T02:53:26.317Z,51.24
2023-05-16T02:54:26.388Z,49.15
2023-05-16T02:55:26.593Z,51.40
2023-05-16T02:56:26.368Z,50.60
2023-05-16T02:57:26.392Z,52.53
2023-05-16T02:58:26.382Z,53.98
2023-05-16T02:59:26.327Z,53.82
2023-05-16T03:00:26.286Z,54.62
2023-05-16T03:01:26.347Z,53.82
2023-05-16T03:02:26.370Z,52.21
2023-05-16T03:03:26.396Z,53.98
2023-05-16T03:04:26.292Z,53.98
2023-05-16T03:05:27.161Z,53.17
2023-05-16T03:06:27.512Z,54.95
2023-05-16T03:07:26.202Z,52.85
2023-05-16T03:08:26.144Z,56.07
2023-05-16T03:09:26.172Z,55.11
2023-05-16T03:10:26.147Z,53.82
2023-05-16T03:11:26.130Z,55.59
2023-05-16T03:12:26.128Z,56.56
2023-05-16T03:13:26.118Z,52.85
2023-05-16T03:14:26.236Z,53.33
2023-05-16T03:15:26.435Z,53.66
2023-05-16T03:16:26.221Z,57.04
2023-05-16T03:17:26.255Z,52.85
2023-05-16T03:18:26.188Z,54.79
2023-05-16T03:19:26.332Z,53.66
2023-05-16T03:20:26.164Z,53.98
2023-05-16T03:21:26.187Z,56.07
2023-05-16T03:22:26.086Z,56.88
2023-05-16T03:23:26.241Z,56.56
2023-05-16T03:24:26.113Z,56.24
2023-05-16T03:25:26.706Z,54.30
2023-05-16T03:26:26.088Z,54.95
2023-05-16T03:27:26.143Z,57.20
2023-05-16T03:28:26.115Z,56.24
2023-05-16T03:29:26.070Z,57.69
2023-05-16T03:30:26.146Z,58.17
2023-05-16T03:31:26.184Z,58.01
2023-05-16T03:32:26.089Z,56.56
2023-05-16T03:33:26.067Z,54.46
2023-05-16T03:34:26.060Z,53.98
2023-05-16T03:35:26.315Z,55.11
2023-05-16T03:36:26.397Z,54.62
2023-05-16T03:37:27.001Z,56.40
2023-05-16T03:38:25.951Z,55.43
2023-05-16T03:39:25.950Z,57.85
2023-05-16T03:40:25.907Z,58.17
2023-05-16T03:41:25.969Z,58.33
2023-05-16T03:42:25.925Z,58.33
2023-05-16T03:43:25.911Z,57.85
2023-05-16T03:44:25.871Z,56.07
2023-05-16T03:45:26.357Z,55.91
2023-05-16T03:46:26.043Z,56.07
2023-05-16T03:47:25.953Z,56.07
2023-05-16T03:48:25.898Z,56.07
2023-05-16T03:49:25.992Z,56.88
2023-05-16T03:50:25.945Z,59.78
2023-05-16T03:51:25.923Z,53.98
2023-05-16T03:52:25.950Z,54.79
2023-05-16T03:53:25.966Z,56.72
2023-05-16T03:54:26.170Z,57.69
2023-05-16T03:55:26.045Z,59.62
2023-05-16T03:56:25.865Z,57.52
2023-05-16T03:57:25.917Z,57.04
2023-05-16T03:58:25.932Z,57.20
2023-05-16T03:59:25.931Z,56.40
2023-05-16T04:00:26.906Z,58.81
2023-05-16T04:01:26.272Z,56.56
2023-05-16T04:02:25.993Z,60.10
2023-05-16T04:03:44.645Z,55.91
2023-05-16T04:04:25.787Z,58.65
2023-05-16T04:05:26.075Z,57.85
2023-05-16T04:06:25.766Z,58.01
2023-05-16T04:07:25.731Z,57.04
2023-05-16T04:08:25.781Z,55.43
2023-05-16T04:09:26.258Z,55.91
2023-05-16T04:10:25.798Z,58.65
2023-05-16T04:11:25.733Z,56.56
2023-05-16T04:12:25.740Z,55.11
2023-05-16T04:13:25.784Z,56.72
2023-05-16T04:14:25.724Z,58.17
2023-05-16T04:15:25.894Z,57.85
2023-05-16T04:16:25.777Z,55.43
2023-05-16T04:17:25.745Z,55.91
2023-05-16T04:18:25.649Z,55.75
2023-05-16T04:19:25.742Z,57.52
2023-05-16T04:20:25.689Z,58.01
2023-05-16T04:21:25.641Z,61.39
2023-05-16T04:22:25.644Z,59.94
2023-05-16T04:23:25.642Z,57.69
2023-05-16T04:24:25.621Z,58.65
2023-05-16T04:25:25.917Z,60.26
2023-05-16T04:26:25.665Z,58.33
2023-05-16T04:27:25.601Z,59.78
2023-05-16T04:28:25.598Z,57.69
2023-05-16T04:29:25.568Z,59.78
2023-05-16T04:30:25.588Z,59.46
2023-05-16T04:31:25.669Z,59.30
2023-05-16T04:32:25.588Z,57.36
2023-05-16T04:33:25.561Z,57.52
2023-05-16T04:34:25.501Z,58.65
2023-05-16T04:35:25.770Z,56.24
2023-05-16T04:36:25.530Z,59.30
2023-05-16T04:37:25.489Z,58.49
2023-05-16T04:38:25.526Z,60.75
2023-05-16T04:39:25.569Z,59.14
2023-05-16T04:40:25.571Z,59.14
2023-05-16T04:41:25.457Z,59.62
2023-05-16T04:42:25.572Z,58.49
2023-05-16T04:43:25.498Z,58.65
2023-05-16T04:44:25.479Z,57.69
2023-05-16T04:45:25.674Z,58.65
2023-05-16T04:46:25.503Z,58.01
2023-05-16T04:47:25.618Z,56.24
2023-05-16T04:48:25.486Z,61.71
2023-05-16T04:49:25.448Z,58.49
2023-05-16T04:50:25.441Z,60.10
2023-05-16T04:51:25.457Z,57.69
2023-05-16T04:52:25.493Z,56.56
2023-05-16T04:53:25.490Z,57.20
2023-05-16T04:54:25.441Z,58.97
2023-05-16T04:55:25.517Z,58.65
2023-05-16T04:56:25.447Z,58.33
2023-05-16T04:57:25.416Z,60.26
2023-05-16T04:58:25.424Z,58.01
2023-05-16T04:59:25.372Z,58.65
2023-05-16T05:00:25.640Z,58.17
2023-05-16T05:01:25.372Z,57.69
2023-05-16T05:02:25.444Z,59.14
2023-05-16T05:03:25.357Z,59.46
2023-05-16T05:04:25.486Z,58.49
2023-05-16T05:05:25.408Z,57.04
2023-05-16T05:06:25.371Z,60.26
2023-05-16T05:07:25.284Z,56.24
2023-05-16T05:08:25.367Z,54.79
2023-05-16T05:09:25.764Z,58.17
2023-05-16T05:10:25.279Z,57.69
2023-05-16T05:11:25.325Z,56.56
2023-05-16T05:12:25.237Z,58.17
2023-05-16T05:13:25.237Z,59.30
2023-05-16T05:14:25.294Z,58.01
2023-05-16T05:15:25.468Z,59.46
2023-05-16T05:16:25.281Z,57.20
2023-05-16T05:17:25.359Z,57.04
2023-05-16T05:18:25.301Z,57.04
2023-05-16T05:19:25.462Z,58.01
2023-05-16T05:20:25.330Z,58.81
2023-05-16T05:21:25.242Z,58.97
2023-05-16T05:22:25.224Z,57.04
2023-05-16T05:23:25.244Z,57.04
2023-05-16T05:24:25.167Z,57.69
2023-05-16T05:25:25.386Z,59.94
2023-05-16T05:26:25.286Z,60.75
2023-05-16T05:27:25.165Z,59.30
2023-05-16T05:28:25.238Z,59.30
2023-05-16T05:29:25.199Z,59.30
2023-05-16T05:30:25.203Z,59.78
2023-05-16T05:31:25.270Z,59.78
2023-05-16T05:32:25.217Z,60.10
2023-05-16T05:33:25.173Z,60.59
2023-05-16T05:34:25.208Z,60.91
2023-05-16T05:35:25.289Z,60.75
2023-05-16T05:36:25.119Z,60.75
2023-05-16T05:37:25.204Z,60.26
2023-05-16T05:38:25.166Z,60.75
2023-05-16T05:39:25.081Z,57.20
2023-05-16T05:40:25.125Z,62.52
2023-05-16T05:41:25.120Z,60.91
2023-05-16T05:42:25.161Z,60.75
2023-05-16T05:43:25.074Z,60.42
2023-05-16T05:44:25.057Z,57.20
2023-05-16T05:45:25.197Z,58.49
2023-05-16T05:46:25.116Z,59.78
2023-05-16T05:47:25.108Z,60.26
2023-05-16T05:48:25.077Z,61.07
2023-05-16T05:49:25.076Z,60.26
2023-05-16T05:50:25.041Z,60.75
2023-05-16T05:51:25.021Z,61.55
2023-05-16T05:52:25.049Z,61.23
2023-05-16T05:53:25.090Z,61.55
2023-05-16T05:54:25.065Z,62.04
2023-05-16T05:55:25.197Z,61.07
2023-05-16T05:56:24.963Z,61.55
2023-05-16T05:57:24.941Z,59.94
2023-05-16T05:58:24.927Z,61.55
2023-05-16T05:59:24.971Z,60.26
2023-05-16T06:00:24.934Z,61.23
2023-05-16T06:01:25.045Z,60.75
2023-05-16T06:02:25.021Z,61.71
2023-05-16T06:03:24.915Z,61.07
2023-05-16T06:04:24.949Z,60.75
2023-05-16T06:05:25.068Z,61.23
2023-05-16T06:06:25.866Z,61.07
2023-05-16T06:07:24.862Z,60.75
2023-05-16T06:08:24.817Z,60.26
2023-05-16T06:09:24.830Z,61.87
2023-05-16T06:10:25.145Z,60.10
2023-05-16T06:11:24.862Z,61.23
2023-05-16T06:12:24.812Z,63.97
2023-05-16T06:13:24.819Z,60.10
2023-05-16T06:14:25.806Z,61.39
2023-05-16T06:15:24.910Z,61.71
2023-05-16T06:16:24.895Z,60.26
2023-05-16T06:17:24.842Z,60.91
2023-05-16T06:18:24.746Z,62.68
2023-05-16T06:19:24.990Z,60.75
2023-05-16T06:20:24.813Z,59.78
2023-05-16T06:21:24.810Z,60.75
2023-05-16T06:22:24.775Z,61.71
2023-05-16T06:23:24.690Z,61.55
2023-05-16T06:24:24.681Z,61.55
2023-05-16T06:25:24.812Z,58.65
2023-05-16T06:26:24.830Z,59.78
2023-05-16T06:27:24.792Z,61.71
2023-05-16T06:28:24.664Z,58.33
2023-05-16T06:29:24.814Z,59.46
2023-05-16T06:30:24.689Z,59.30
2023-05-16T06:31:24.681Z,58.97
2023-05-16T06:32:24.777Z,61.07
2023-05-16T06:33:24.705Z,61.71
2023-05-16T06:34:24.640Z,59.14
2023-05-16T06:35:24.699Z,60.26
2023-05-16T06:36:24.697Z,59.46
2023-05-16T06:37:24.672Z,58.17
2023-05-16T06:38:24.699Z,58.33
2023-05-16T06:39:24.627Z,60.91
2023-05-16T06:40:24.672Z,61.55
2023-05-16T06:41:24.618Z,59.94
2023-05-16T06:42:24.604Z,59.30
2023-05-16T06:43:24.631Z,59.62
2023-05-16T06:44:24.575Z,58.17
2023-05-16T06:45:24.645Z,59.78
2023-05-16T06:46:24.620Z,59.46
2023-05-16T06:47:24.566Z,61.71
2023-05-16T06:48:24.659Z,59.14
2023-05-16T06:49:24.509Z,60.26
2023-05-16T06:50:24.573Z,59.94
2023-05-16T06:51:24.573Z,62.52
2023-05-16T06:52:24.518Z,61.07
2023-05-16T06:53:24.540Z,61.23
2023-05-16T06:54:24.562Z,61.87
2023-05-16T06:55:24.505Z,58.65
2023-05-16T06:56:24.534Z,59.78
2023-05-16T06:57:24.513Z,59.46
2023-05-16T06:58:25.379Z,59.14
2023-05-16T06:59:25.184Z,59.62
2023-05-16T07:00:24.488Z,59.30
2023-05-16T07:01:24.540Z,59.78
2023-05-16T07:02:24.514Z,59.78
2023-05-16T07:03:24.581Z,57.20
2023-05-16T07:04:24.467Z,57.20
2023-05-16T07:05:24.489Z,59.14
2023-05-16T07:06:24.467Z,60.10
2023-05-16T07:07:24.439Z,56.07
2023-05-16T07:08:24.419Z,56.07
2023-05-16T07:09:24.388Z,58.33
2023-05-16T07:10:24.723Z,59.30
2023-05-16T07:11:25.441Z,58.17
2023-05-16T07:12:24.417Z,58.17
2023-05-16T07:13:24.414Z,59.78
2023-05-16T07:14:24.519Z,59.78
2023-05-16T07:15:24.374Z,59.14
2023-05-16T07:16:24.414Z,59.14
2023-05-16T07:17:24.426Z,60.10
2023-05-16T07:18:24.335Z,59.62
2023-05-16T07:19:24.396Z,59.78
2023-05-16T07:20:24.342Z,62.20
2023-05-16T07:21:24.368Z,58.65
2023-05-16T07:22:24.291Z,57.69
2023-05-16T07:23:24.339Z,58.81
2023-05-16T07:24:24.330Z,58.33
2023-05-16T07:25:24.290Z,60.75
2023-05-16T07:26:24.326Z,59.62
2023-05-16T07:27:25.295Z,58.81
2023-05-16T07:28:24.363Z,60.91
2023-05-16T07:29:24.251Z,60.26
2023-05-16T07:30:24.320Z,59.14
2023-05-16T07:31:24.351Z,60.10
2023-05-16T07:32:24.377Z,60.10
2023-05-16T07:33:24.258Z,58.81
2023-05-16T07:34:24.251Z,60.26
2023-05-16T07:35:24.221Z,58.65
2023-05-16T07:36:24.268Z,58.81
2023-05-16T07:37:24.181Z,59.78
2023-05-16T07:38:24.288Z,59.78
2023-05-16T07:39:24.181Z,59.78
2023-05-16T07:40:30.187Z,58.33
2023-05-16T07:41:25.174Z,60.75
2023-05-16T07:42:24.181Z,58.65
2023-05-16T07:43:24.180Z,58.17
2023-05-16T07:44:24.138Z,58.17
2023-05-16T07:45:24.208Z,57.04
2023-05-16T07:46:24.130Z,59.30
2023-05-16T07:47:24.160Z,57.69
2023-05-16T07:48:24.138Z,60.75
2023-05-16T07:49:24.143Z,57.36
2023-05-16T07:50:24.176Z,60.91
2023-05-16T07:51:24.130Z,59.94
2023-05-16T07:52:24.080Z,58.17
2023-05-16T07:53:24.160Z,57.69
2023-05-16T07:54:24.105Z,58.81
2023-05-16T07:55:24.258Z,58.65
2023-05-16T07:56:24.078Z,56.40
2023-05-16T07:57:25.163Z,58.65
2023-05-16T07:58:25.103Z,59.30
2023-05-16T07:59:24.138Z,59.78
2023-05-16T08:00:24.228Z,57.85
2023-05-16T08:01:24.036Z,58.81
2023-05-16T08:02:24.063Z,57.85
2023-05-16T08:03:24.227Z,58.65
2023-05-16T08:04:23.977Z,59.62
2023-05-16T08:05:24.068Z,60.10
2023-05-16T08:06:24.007Z,57.85
2023-05-16T08:07:23.984Z,57.69
2023-05-16T08:08:24.011Z,57.85
2023-05-16T08:09:23.967Z,58.65
2023-05-16T08:10:25.416Z,58.33
2023-05-16T08:11:24.005Z,58.81
2023-05-16T08:12:23.944Z,58.17
2023-05-16T08:13:23.959Z,57.69
2023-05-16T08:14:23.929Z,59.46
2023-05-16T08:15:23.997Z,60.75
2023-05-16T08:16:23.955Z,56.72
2023-05-16T08:17:23.999Z,60.10
2023-05-16T08:18:23.914Z,58.33
2023-05-16T08:19:23.983Z,58.97
2023-05-16T08:20:23.898Z,61.07
2023-05-16T08:21:23.937Z,58.33
2023-05-16T08:22:23.867Z,59.30
2023-05-16T08:23:23.865Z,56.88
2023-05-16T08:24:23.882Z,57.36
2023-05-16T08:25:23.894Z,59.78
2023-05-16T08:26:23.864Z,58.01
2023-05-16T08:27:23.893Z,60.59
2023-05-16T08:28:23.842Z,58.81
2023-05-16T08:29:23.852Z,58.81
2023-05-16T08:30:23.914Z,59.14
2023-05-16T08:31:23.835Z,59.62
2023-05-16T08:32:38.098Z,58.97
2023-05-16T08:33:24.809Z,60.26
2023-05-16T08:34:23.845Z,57.36
2023-05-16T08:35:23.778Z,58.17
2023-05-16T08:36:23.816Z,57.52
2023-05-16T08:37:23.745Z,56.56
2023-05-16T08:38:23.830Z,55.91
2023-05-16T08:39:23.727Z,57.69
2023-05-16T08:40:23.715Z,58.65
2023-05-16T08:41:23.748Z,57.36
2023-05-16T08:42:23.731Z,56.72
2023-05-16T08:43:23.737Z,57.52
2023-05-16T08:44:23.728Z,58.17
2023-05-16T08:45:23.727Z,56.07
2023-05-16T08:46:23.765Z,55.43
2023-05-16T08:47:23.724Z,57.20
2023-05-16T08:48:23.792Z,57.52
2023-05-16T08:49:23.734Z,57.36
2023-05-16T08:50:23.739Z,57.04
2023-05-16T08:51:23.690Z,56.07
2023-05-16T08:52:23.648Z,56.56
2023-05-16T08:53:24.757Z,55.43
2023-05-16T08:54:24.547Z,55.91
2023-05-16T08:55:23.696Z,57.69
2023-05-16T08:56:23.618Z,55.75
2023-05-16T08:57:23.623Z,55.91
2023-05-16T08:58:23.734Z,57.69
2023-05-16T08:59:23.640Z,58.33
2023-05-16T09:00:23.653Z,57.20
2023-05-16T09:01:23.680Z,57.69
2023-05-16T09:02:23.709Z,59.62
2023-05-16T09:03:23.712Z,55.75
2023-05-16T09:04:24.675Z,55.59
2023-05-16T09:05:23.632Z,56.88
2023-05-16T09:06:23.582Z,55.43
2023-05-16T09:07:23.564Z,56.56
2023-05-16T09:08:23.697Z,57.04
2023-05-16T09:09:23.540Z,57.36
2023-05-16T09:10:23.595Z,57.52
2023-05-16T09:11:23.782Z,56.72
2023-05-16T09:12:23.579Z,58.01
2023-05-16T09:13:23.530Z,60.75
2023-05-16T09:14:23.522Z,59.30
2023-05-16T09:15:24.520Z,55.59
2023-05-16T09:16:23.641Z,57.69
2023-05-16T09:17:35.926Z,58.01
2023-05-16T09:18:25.524Z,57.69
2023-05-16T09:19:23.593Z,55.43
2023-05-16T09:20:24.553Z,57.52
2023-05-16T09:21:23.575Z,58.65
2023-05-16T09:22:23.576Z,57.20
2023-05-16T09:23:23.568Z,57.69
2023-05-16T09:24:23.414Z,58.17
2023-05-16T09:25:30.400Z,57.85
2023-05-16T09:26:25.453Z,55.43
2023-05-16T09:27:23.490Z,56.88
2023-05-16T09:28:23.408Z,57.04
2023-05-16T09:29:23.632Z,58.01
2023-05-16T09:30:23.436Z,59.78
2023-05-16T09:31:23.559Z,58.33
2023-05-16T09:32:24.484Z,58.49
2023-05-16T09:33:23.327Z,60.42
2023-05-16T09:34:23.372Z,58.49
2023-05-16T09:35:39.084Z,56.56
2023-05-16T09:36:25.372Z,54.46
2023-05-16T09:37:23.335Z,54.46
2023-05-16T09:38:23.485Z,57.52
2023-05-16T09:39:23.313Z,57.69
2023-05-16T09:40:23.301Z,55.43
2023-05-16T09:41:23.311Z,55.91
2023-05-16T09:42:23.331Z,56.40
2023-05-16T09:43:23.502Z,54.95
2023-05-16T09:44:23.393Z,53.33
2023-05-16T09:45:23.302Z,56.56
2023-05-16T09:46:23.397Z,57.69
2023-05-16T09:47:23.271Z,59.30
2023-05-16T09:48:23.268Z,55.43
2023-05-16T09:49:23.249Z,58.65
2023-05-16T09:50:23.264Z,58.17
2023-05-16T09:51:23.219Z,56.88
2023-05-16T09:52:23.259Z,57.04
2023-05-16T09:53:23.209Z,56.24
2023-05-16T09:54:23.265Z,58.65
2023-05-16T09:55:23.188Z,56.40
2023-05-16T09:56:23.270Z,53.82
2023-05-16T09:57:23.231Z,57.69
2023-05-16T09:58:23.214Z,55.91
2023-05-16T09:59:23.172Z,57.04
2023-05-16T10:00:23.225Z,53.98
2023-05-16T10:01:23.199Z,53.01
2023-05-16T10:02:23.244Z,56.56
2023-05-16T10:03:23.237Z,55.43
2023-05-16T10:04:23.305Z,56.24
2023-05-16T10:05:23.186Z,54.14
2023-05-16T10:06:23.107Z,55.59
2023-05-16T10:07:23.162Z,53.50
2023-05-16T10:08:23.131Z,54.95
2023-05-16T10:09:23.135Z,56.72
2023-05-16T10:10:23.104Z,54.95
2023-05-16T10:11:23.172Z,54.30
2023-05-16T10:12:23.126Z,57.04
2023-05-16T10:13:23.090Z,55.59
2023-05-16T10:14:23.099Z,58.81
2023-05-16T10:15:23.082Z,56.24
2023-05-16T10:16:23.109Z,57.69
2023-05-16T10:17:23.047Z,55.43
2023-05-16T10:18:23.054Z,57.52
2023-05-16T10:19:23.169Z,55.43
2023-05-16T10:20:23.040Z,59.30
2023-05-16T10:21:23.050Z,57.69
2023-05-16T10:22:23.057Z,56.07
2023-05-16T10:23:23.048Z,54.46
2023-05-16T10:24:23.021Z,55.11
2023-05-16T10:25:22.984Z,55.43
2023-05-16T10:26:23.142Z,55.91
2023-05-16T10:27:23.048Z,54.14
2023-05-16T10:28:22.971Z,57.69
2023-05-16T10:29:22.982Z,53.82
2023-05-16T10:30:22.935Z,54.62
2023-05-16T10:31:23.070Z,55.59
2023-05-16T10:32:23.115Z,56.56
2023-05-16T10:33:23.007Z,53.17
2023-05-16T10:34:22.890Z,57.04
2023-05-16T10:35:22.929Z,56.88
2023-05-16T10:36:22.940Z,55.27
2023-05-16T10:37:22.921Z,55.11
2023-05-16T10:38:23.087Z,55.43
2023-05-16T10:39:22.883Z,55.27
2023-05-16T10:40:22.868Z,55.75
2023-05-16T10:41:22.846Z,57.36
2023-05-16T10:42:22.885Z,54.95
2023-05-16T10:43:22.839Z,56.56
2023-05-16T10:44:22.888Z,56.56
2023-05-16T10:45:23.010Z,57.69
2023-05-16T10:46:22.992Z,59.30
2023-05-16T10:47:22.810Z,57.20
2023-05-16T10:48:23.122Z,54.46
2023-05-16T10:49:23.058Z,54.46
2023-05-16T10:50:22.804Z,56.40
2023-05-16T10:51:22.904Z,54.79
2023-05-16T10:52:22.780Z,54.95
2023-05-16T10:53:22.846Z,56.72
2023-05-16T10:54:22.863Z,60.26
2023-05-16T10:55:22.944Z,58.97
2023-05-16T10:56:22.839Z,57.04
2023-05-16T10:57:22.789Z,56.07
2023-05-16T10:58:22.722Z,58.81
2023-05-16T10:59:22.904Z,58.17
2023-05-16T11:00:22.859Z,58.33
2023-05-16T11:01:22.781Z,57.20
2023-05-16T11:02:22.806Z,56.24
2023-05-16T11:03:22.935Z,57.85
2023-05-16T11:04:22.684Z,59.94
2023-05-16T11:05:22.722Z,57.36
2023-05-16T11:06:24.297Z,57.36
2023-05-16T11:07:22.701Z,58.01
2023-05-16T11:08:22.726Z,58.17
2023-05-16T11:09:22.935Z,54.79
2023-05-16T11:10:23.132Z,55.43
2023-05-16T11:11:22.777Z,55.43
2023-05-16T11:12:22.658Z,54.79
2023-05-16T11:13:22.799Z,53.33
2023-05-16T11:14:22.780Z,54.46
2023-05-16T11:15:22.732Z,56.24
2023-05-16T11:16:22.786Z,56.56
2023-05-16T11:17:22.734Z,57.04
2023-05-16T11:18:22.819Z,57.85
2023-05-16T11:19:22.736Z,57.52
2023-05-16T11:20:22.583Z,56.72
2023-05-16T11:21:22.664Z,57.52
2023-05-16T11:22:22.650Z,56.07
2023-05-16T11:23:22.602Z,58.01
2023-05-16T11:24:22.697Z,56.40
2023-05-16T11:25:22.569Z,55.91
2023-05-16T11:26:22.611Z,55.91
2023-05-16T11:27:22.540Z,59.46
2023-05-16T11:28:22.638Z,55.43
2023-05-16T11:29:22.564Z,56.72
2023-05-16T11:30:22.736Z,55.43
2023-05-16T11:31:22.679Z,55.27
2023-05-16T11:32:22.681Z,56.07
2023-05-16T11:33:22.640Z,55.59
2023-05-16T11:34:23.180Z,56.72
2023-05-16T11:35:22.564Z,56.07
2023-05-16T11:36:22.550Z,58.01
2023-05-16T11:37:22.539Z,55.59
2023-05-16T11:38:22.480Z,54.46
2023-05-16T11:39:22.537Z,56.72
2023-05-16T11:40:22.505Z,55.75
2023-05-16T11:41:22.688Z,55.27
2023-05-16T11:42:22.472Z,56.56
2023-05-16T11:43:22.446Z,56.07
2023-05-16T11:44:22.444Z,56.72
2023-05-16T11:45:22.441Z,55.27
2023-05-16T11:46:22.468Z,58.49
2023-05-16T11:47:24.006Z,58.01
2023-05-16T11:48:35.396Z,57.52
2023-05-16T11:49:24.528Z,56.72
2023-05-16T11:50:22.527Z,55.27
2023-05-16T11:51:22.587Z,55.11
2023-05-16T11:52:22.433Z,57.52
2023-05-16T11:53:22.981Z,56.24
2023-05-16T11:54:22.450Z,55.59
2023-05-16T11:55:33.184Z,56.72
2023-05-16T11:56:24.369Z,54.46
2023-05-16T11:57:22.491Z,55.75
2023-05-16T11:58:22.360Z,55.11
2023-05-16T11:59:22.325Z,55.59
2023-05-16T12:00:22.529Z,53.33
2023-05-16T12:01:22.296Z,55.43
2023-05-16T12:02:22.365Z,56.07
2023-05-16T12:03:22.414Z,56.24
2023-05-16T12:04:22.414Z,55.43
2023-05-16T12:05:22.364Z,55.27
2023-05-16T12:06:22.333Z,56.40
2023-05-16T12:07:23.305Z,56.56
2023-05-16T12:08:23.288Z,56.72
2023-05-16T12:09:22.464Z,57.69
2023-05-16T12:10:22.249Z,58.49
2023-05-16T12:11:22.402Z,58.33
2023-05-16T12:12:22.294Z,57.52
2023-05-16T12:13:22.217Z,59.14
2023-05-16T12:14:22.245Z,57.36
2023-05-16T12:15:22.169Z,60.10
2023-05-16T12:16:23.328Z,56.56
2023-05-16T12:17:22.274Z,56.88
2023-05-16T12:18:22.334Z,57.52
2023-05-16T12:19:22.316Z,56.72
2023-05-16T12:20:22.177Z,55.11
2023-05-16T12:21:22.166Z,56.07
2023-05-16T12:22:22.609Z,56.88
2023-05-16T12:23:22.137Z,57.69
2023-05-16T12:24:22.201Z,57.52
2023-05-16T12:25:22.261Z,55.43
2023-05-16T12:26:22.146Z,57.04
2023-05-16T12:27:22.153Z,59.14
2023-05-16T12:28:22.086Z,60.10
2023-05-16T12:29:22.053Z,59.62
2023-05-16T12:30:22.165Z,57.04
2023-05-16T12:32:23.620Z,57.85
2023-05-16T12:33:22.108Z,57.04
2023-05-16T12:34:22.074Z,57.20
2023-05-16T12:35:22.053Z,57.20
2023-05-16T12:36:22.060Z,57.04
2023-05-16T12:37:22.076Z,57.20
2023-05-16T12:38:22.189Z,57.69
2023-05-16T12:39:22.018Z,57.36
2023-05-16T12:40:22.368Z,55.43
2023-05-16T12:41:22.073Z,56.40
2023-05-16T12:42:22.015Z,55.27
2023-05-16T12:43:23.695Z,57.04
2023-05-16T12:44:22.341Z,56.24
2023-05-16T12:45:22.145Z,55.59
2023-05-16T12:46:22.215Z,57.20
2023-05-16T12:47:22.131Z,54.79
2023-05-16T12:48:22.093Z,57.04
2023-05-16T12:49:22.010Z,56.56
2023-05-16T12:50:21.939Z,57.20
2023-05-16T12:51:21.965Z,56.07
2023-05-16T12:52:21.955Z,55.11
2023-05-16T12:53:21.944Z,57.04